sensor_id;sensor_type;location;lat;lon;timestamp;P1;durP1;ratioP1;P2;durP2;ratioP2
74483;SDS011;62942;52.462;10.846;2023-03-03T00:00:15;28.9;;;97.4;;
74483;SDS011;62942;52.462;10.846;2023-03-03T00:01:14;28.6;;;86.7;;
74483;SDS011;62942;52.462;10.846;2023-03-03T00:02:24;28.5;;;90;;
74483;SDS011;62942;52.462;10.846;2023-03-03T00:03:34;30.7;;;104.3;;
74483;SDS011;62942;52.462;10.846;2023-03-03T00:04:44;27.7;;;84;;
74483;SDS011;62942;52.462;10.846;2023-03-03T00:05:45;29.3;;;96.4;;
74483;SDS011;62942;52.462;10.846;2023-03-03T00:06:54;28;;;89.3;;
74483;SDS011;62942;52.462;10.846;2023-03-03T00:07:54;28.9;;;94.6;;
74483;SDS011;62942;52.462;10.846;2023-03-03T00:09:04;28.2;;;85.5;;
74483;SDS011;62942;52.462;10.846;2023-03-03T00:10:14;26.2;;;74.7;;
74483;SDS011;62942;52.462;10.846;2023-03-03T00:11:24;25.1;;;70.6;;
74483;SDS011;62942;52.462;10.846;2023-03-03T00:12:25;25.3;;;64.8;;
74483;SDS011;62942;52.462;10.846;2023-03-03T00:13:37;26.4;;;71.7;;
74483;SDS011;62942;52.462;10.846;2023-03-03T00:14:44;24.8;;;65.7;;
74483;SDS011;62942;52.462;10.846;2023-03-03T00:15:54;24.6;;;66.3;;
74483;SDS011;62942;52.462;10.846;2023-03-03T00:16:54;25.7;;;71.1;;
74483;SDS011;62942;52.462;10.846;2023-03-03T00:18:05;26.3;;;72.1;;
74483;SDS011;62942;52.462;10.846;2023-03-03T00:19:17;26.4;;;74.8;;
74483;SDS011;62942;52.462;10.846;2023-03-03T00:20:32;25.8;;;73.6;;
74483;SDS011;62942;52.462;10.846;2023-03-03T00:21:26;26.7;;;76.5;;
74483;SDS011;62942;52.462;10.846;2023-03-03T00:22:35;26.9;;;79.8;;
74483;SDS011;62942;52.462;10.846;2023-03-03T00:23:44;26.9;;;77.6;;
74483;SDS011;62942;52.462;10.846;2023-03-03T00:24:44;27.5;;;84.3;;
74483;SDS011;62942;52.462;10.846;2023-03-03T00:25:54;25.9;;;76.4;;
74483;SDS011;62942;52.462;10.846;2023-03-03T00:27:09;25.8;;;79;;
74483;SDS011;62942;52.462;10.846;2023-03-03T00:28:05;25.6;;;72.6;;
74483;SDS011;62942;52.462;10.846;2023-03-03T00:29:22;25.9;;;69;;
74483;SDS011;62942;52.462;10.846;2023-03-03T00:30:25;25.5;;;72.8;;
74483;SDS011;62942;52.462;10.846;2023-03-03T00:31:26;25.6;;;71.2;;
74483;SDS011;62942;52.462;10.846;2023-03-03T00:32:36;24.7;;;67.9;;
74483;SDS011;62942;52.462;10.846;2023-03-03T00:33:45;25.2;;;69.9;;
74483;SDS011;62942;52.462;10.846;2023-03-03T00:34:44;25;;;71.8;;
74483;SDS011;62942;52.462;10.846;2023-03-03T00:35:55;25.2;;;73.5;;
74483;SDS011;62942;52.462;10.846;2023-03-03T00:37:10;25.4;;;71.2;;
74483;SDS011;62942;52.462;10.846;2023-03-03T00:38:15;24.1;;;70.4;;
74483;SDS011;62942;52.462;10.846;2023-03-03T00:39:19;24.8;;;68;;
74483;SDS011;62942;52.462;10.846;2023-03-03T00:40:25;25.1;;;70.3;;
74483;SDS011;62942;52.462;10.846;2023-03-03T00:41:25;24.1;;;64;;
74483;SDS011;62942;52.462;10.846;2023-03-03T00:42:25;24.4;;;67.1;;
74483;SDS011;62942;52.462;10.846;2023-03-03T00:43:35;24.1;;;64.2;;
74483;SDS011;62942;52.462;10.846;2023-03-03T00:44:45;23.5;;;65.1;;
74483;SDS011;62942;52.462;10.846;2023-03-03T00:45:45;23.2;;;63.6;;
74483;SDS011;62942;52.462;10.846;2023-03-03T00:46:54;23.2;;;64.7;;
74483;SDS011;62942;52.462;10.846;2023-03-03T00:47:55;23;;;59.1;;
74483;SDS011;62942;52.462;10.846;2023-03-03T00:49:04;22.7;;;61;;
74483;SDS011;62942;52.462;10.846;2023-03-03T00:50:17;23;;;59.9;;
74483;SDS011;62942;52.462;10.846;2023-03-03T00:51:19;22.6;;;60.1;;
74483;SDS011;62942;52.462;10.846;2023-03-03T00:52:26;22.5;;;58.1;;
74483;SDS011;62942;52.462;10.846;2023-03-03T00:53:34;22.7;;;57.8;;
74483;SDS011;62942;52.462;10.846;2023-03-03T00:54:34;22.6;;;58.5;;
74483;SDS011;62942;52.462;10.846;2023-03-03T00:55:45;21.9;;;52.9;;
74483;SDS011;62942;52.462;10.846;2023-03-03T00:56:54;20.5;;;48.2;;
74483;SDS011;62942;52.462;10.846;2023-03-03T00:57:54;21;;;50.7;;
74483;SDS011;62942;52.462;10.846;2023-03-03T00:59:04;21.3;;;51.3;;
74483;SDS011;62942;52.462;10.846;2023-03-03T01:00:05;21.5;;;51;;
74483;SDS011;62942;52.462;10.846;2023-03-03T01:01:14;21.7;;;51.3;;
74483;SDS011;62942;52.462;10.846;2023-03-03T01:02:24;20.9;;;48.3;;
74483;SDS011;62942;52.462;10.846;2023-03-03T01:03:25;20.9;;;48.9;;
74483;SDS011;62942;52.462;10.846;2023-03-03T01:04:34;21.1;;;49.6;;
74483;SDS011;62942;52.462;10.846;2023-03-03T01:05:44;21.6;;;50.9;;
74483;SDS011;62942;52.462;10.846;2023-03-03T01:06:54;20.6;;;45.7;;
74483;SDS011;62942;52.462;10.846;2023-03-03T01:07:54;20.2;;;47.8;;
74483;SDS011;62942;52.462;10.846;2023-03-03T01:09:04;20.6;;;46.9;;
74483;SDS011;62942;52.462;10.846;2023-03-03T01:10:14;20.3;;;45.2;;
74483;SDS011;62942;52.462;10.846;2023-03-03T01:11:25;20.1;;;45;;
74483;SDS011;62942;52.462;10.846;2023-03-03T01:12:24;20.5;;;49.5;;
74483;SDS011;62942;52.462;10.846;2023-03-03T01:13:35;21;;;48.6;;
74483;SDS011;62942;52.462;10.846;2023-03-03T01:14:44;20.9;;;49.6;;
74483;SDS011;62942;52.462;10.846;2023-03-03T01:15:44;21;;;49;;
74483;SDS011;62942;52.462;10.846;2023-03-03T01:16:44;20.7;;;50.8;;
74483;SDS011;62942;52.462;10.846;2023-03-03T01:17:54;21.4;;;49.7;;
74483;SDS011;62942;52.462;10.846;2023-03-03T01:18:54;20.8;;;48.9;;
74483;SDS011;62942;52.462;10.846;2023-03-03T01:20:05;21.5;;;52.3;;
74483;SDS011;62942;52.462;10.846;2023-03-03T01:21:14;20.7;;;49.8;;
74483;SDS011;62942;52.462;10.846;2023-03-03T01:22:14;21.2;;;51.7;;
74483;SDS011;62942;52.462;10.846;2023-03-03T01:23:24;21;;;48.7;;
74483;SDS011;62942;52.462;10.846;2023-03-03T01:24:34;21.3;;;50.4;;
74483;SDS011;62942;52.462;10.846;2023-03-03T01:25:35;21.7;;;51;;
74483;SDS011;62942;52.462;10.846;2023-03-03T01:26:44;21.6;;;50.5;;
74483;SDS011;62942;52.462;10.846;2023-03-03T01:27:54;21.6;;;47.6;;
74483;SDS011;62942;52.462;10.846;2023-03-03T01:28:54;20.9;;;51.1;;
74483;SDS011;62942;52.462;10.846;2023-03-03T01:30:05;20.9;;;50.2;;
74483;SDS011;62942;52.462;10.846;2023-03-03T01:31:14;20.8;;;48.8;;
74483;SDS011;62942;52.462;10.846;2023-03-03T01:32:14;20.4;;;49.9;;
74483;SDS011;62942;52.462;10.846;2023-03-03T01:33:24;20.5;;;50.7;;
74483;SDS011;62942;52.462;10.846;2023-03-03T01:34:24;21.3;;;50.1;;
74483;SDS011;62942;52.462;10.846;2023-03-03T01:35:34;21.3;;;51.7;;
74483;SDS011;62942;52.462;10.846;2023-03-03T01:36:44;20.4;;;48.1;;
74483;SDS011;62942;52.462;10.846;2023-03-03T01:37:44;20.2;;;47.5;;
74483;SDS011;62942;52.462;10.846;2023-03-03T01:38:44;20.6;;;47.6;;
74483;SDS011;62942;52.462;10.846;2023-03-03T01:39:46;20.9;;;51.2;;
74483;SDS011;62942;52.462;10.846;2023-03-03T01:40:55;20.6;;;48.6;;
74483;SDS011;62942;52.462;10.846;2023-03-03T01:42:04;20.3;;;47.9;;
74483;SDS011;62942;52.462;10.846;2023-03-03T01:43:14;19.9;;;45.6;;
74483;SDS011;62942;52.462;10.846;2023-03-03T01:44:14;19.7;;;46.7;;
74483;SDS011;62942;52.462;10.846;2023-03-03T01:45:25;19.8;;;44.3;;
74483;SDS011;62942;52.462;10.846;2023-03-03T01:46:39;19.3;;;44.1;;
74483;SDS011;62942;52.462;10.846;2023-03-03T01:47:46;19.7;;;43.9;;
74483;SDS011;62942;52.462;10.846;2023-03-03T01:48:44;18.7;;;42.6;;
74483;SDS011;62942;52.462;10.846;2023-03-03T01:49:45;19;;;43.3;;
74483;SDS011;62942;52.462;10.846;2023-03-03T01:50:55;18.8;;;42.7;;
74483;SDS011;62942;52.462;10.846;2023-03-03T01:52:08;19.3;;;45;;
74483;SDS011;62942;52.462;10.846;2023-03-03T01:53:15;18.9;;;42.5;;
74483;SDS011;62942;52.462;10.846;2023-03-03T01:54:16;19.1;;;42.8;;
74483;SDS011;62942;52.462;10.846;2023-03-03T01:55:25;18.7;;;41;;
74483;SDS011;62942;52.462;10.846;2023-03-03T01:56:34;18.4;;;39.3;;
74483;SDS011;62942;52.462;10.846;2023-03-03T01:57:35;18.1;;;39.5;;
74483;SDS011;62942;52.462;10.846;2023-03-03T01:58:45;17.9;;;38.3;;
74483;SDS011;62942;52.462;10.846;2023-03-03T01:59:54;17.9;;;39.3;;
74483;SDS011;62942;52.462;10.846;2023-03-03T02:01:06;17.9;;;39.1;;
74483;SDS011;62942;52.462;10.846;2023-03-03T02:02:04;17.6;;;38.4;;
74483;SDS011;62942;52.462;10.846;2023-03-03T02:03:14;17.6;;;37.4;;
74483;SDS011;62942;52.462;10.846;2023-03-03T02:04:24;17.9;;;38.3;;
74483;SDS011;62942;52.462;10.846;2023-03-03T02:05:34;17.5;;;37.4;;
74483;SDS011;62942;52.462;10.846;2023-03-03T02:06:45;17.1;;;36;;
74483;SDS011;62942;52.462;10.846;2023-03-03T02:07:44;17.2;;;37.3;;
74483;SDS011;62942;52.462;10.846;2023-03-03T02:08:56;17.5;;;37.7;;
74483;SDS011;62942;52.462;10.846;2023-03-03T02:10:05;17.3;;;37.3;;
74483;SDS011;62942;52.462;10.846;2023-03-03T02:11:14;17.1;;;35.9;;
74483;SDS011;62942;52.462;10.846;2023-03-03T02:12:25;17.6;;;36.6;;
74483;SDS011;62942;52.462;10.846;2023-03-03T02:13:24;17.5;;;36.6;;
74483;SDS011;62942;52.462;10.846;2023-03-03T02:14:34;17;;;36.2;;
74483;SDS011;62942;52.462;10.846;2023-03-03T02:15:34;17.7;;;38.7;;
74483;SDS011;62942;52.462;10.846;2023-03-03T02:16:44;17.2;;;36.4;;
74483;SDS011;62942;52.462;10.846;2023-03-03T02:17:55;16.7;;;34.7;;
74483;SDS011;62942;52.462;10.846;2023-03-03T02:18:54;17.4;;;37;;
74483;SDS011;62942;52.462;10.846;2023-03-03T02:20:05;17.4;;;36.6;;
74483;SDS011;62942;52.462;10.846;2023-03-03T02:21:15;16.4;;;34.6;;
74483;SDS011;62942;52.462;10.846;2023-03-03T02:22:14;16.5;;;34.4;;
74483;SDS011;62942;52.462;10.846;2023-03-03T02:23:26;17.8;;;37.1;;
74483;SDS011;62942;52.462;10.846;2023-03-03T02:24:25;17.4;;;36.5;;
74483;SDS011;62942;52.462;10.846;2023-03-03T02:25:36;17.1;;;36.7;;
74483;SDS011;62942;52.462;10.846;2023-03-03T02:26:35;16.8;;;35;;
74483;SDS011;62942;52.462;10.846;2023-03-03T02:27:34;17;;;37.7;;
74483;SDS011;62942;52.462;10.846;2023-03-03T02:28:44;18;;;39.1;;
74483;SDS011;62942;52.462;10.846;2023-03-03T02:29:44;17.1;;;35.8;;
74483;SDS011;62942;52.462;10.846;2023-03-03T02:30:55;17.1;;;36.1;;
74483;SDS011;62942;52.462;10.846;2023-03-03T02:31:54;16.7;;;36.2;;
74483;SDS011;62942;52.462;10.846;2023-03-03T02:33:04;17.8;;;36.8;;
74483;SDS011;62942;52.462;10.846;2023-03-03T02:34:14;17.4;;;35.7;;
74483;SDS011;62942;52.462;10.846;2023-03-03T02:35:26;17.2;;;37.4;;
74483;SDS011;62942;52.462;10.846;2023-03-03T02:36:25;18.3;;;37.9;;
74483;SDS011;62942;52.462;10.846;2023-03-03T02:37:34;17.7;;;37.8;;
74483;SDS011;62942;52.462;10.846;2023-03-03T02:38:35;17.3;;;36.3;;
74483;SDS011;62942;52.462;10.846;2023-03-03T02:39:44;17.8;;;36.8;;
74483;SDS011;62942;52.462;10.846;2023-03-03T02:40:46;17.2;;;37.7;;
74483;SDS011;62942;52.462;10.846;2023-03-03T02:41:54;16.3;;;33.5;;
74483;SDS011;62942;52.462;10.846;2023-03-03T02:43:04;17.3;;;36;;
74483;SDS011;62942;52.462;10.846;2023-03-03T02:44:05;16.7;;;35;;
74483;SDS011;62942;52.462;10.846;2023-03-03T02:45:14;16.9;;;35;;
74483;SDS011;62942;52.462;10.846;2023-03-03T02:46:14;17.7;;;38.6;;
74483;SDS011;62942;52.462;10.846;2023-03-03T02:47:24;16.9;;;36;;
74483;SDS011;62942;52.462;10.846;2023-03-03T02:48:34;17.1;;;35.8;;
74483;SDS011;62942;52.462;10.846;2023-03-03T02:49:44;16.9;;;36.2;;
74483;SDS011;62942;52.462;10.846;2023-03-03T02:50:44;17.5;;;38.7;;
74483;SDS011;62942;52.462;10.846;2023-03-03T02:51:54;17.3;;;37.1;;
74483;SDS011;62942;52.462;10.846;2023-03-03T02:53:04;17;;;36.4;;
74483;SDS011;62942;52.462;10.846;2023-03-03T02:54:15;16.9;;;36.7;;
74483;SDS011;62942;52.462;10.846;2023-03-03T02:55:14;17.6;;;38.4;;
74483;SDS011;62942;52.462;10.846;2023-03-03T02:56:24;17;;;36.4;;
74483;SDS011;62942;52.462;10.846;2023-03-03T02:57:34;17.7;;;38;;
74483;SDS011;62942;52.462;10.846;2023-03-03T02:58:34;17.8;;;39.2;;
74483;SDS011;62942;52.462;10.846;2023-03-03T02:59:44;17.7;;;40.4;;
74483;SDS011;62942;52.462;10.846;2023-03-03T03:00:54;18.3;;;39;;
74483;SDS011;62942;52.462;10.846;2023-03-03T03:01:54;18.1;;;40.5;;
74483;SDS011;62942;52.462;10.846;2023-03-03T03:02:54;18.2;;;41.5;;
74483;SDS011;62942;52.462;10.846;2023-03-03T03:04:04;18.5;;;42;;
74483;SDS011;62942;52.462;10.846;2023-03-03T03:05:04;18.3;;;40.9;;
74483;SDS011;62942;52.462;10.846;2023-03-03T03:06:14;17.6;;;39;;
74483;SDS011;62942;52.462;10.846;2023-03-03T03:07:24;17.8;;;38.4;;
74483;SDS011;62942;52.462;10.846;2023-03-03T03:08:24;18.1;;;40.5;;
74483;SDS011;62942;52.462;10.846;2023-03-03T03:09:34;18.3;;;43;;
74483;SDS011;62942;52.462;10.846;2023-03-03T03:10:44;18.3;;;42.5;;
74483;SDS011;62942;52.462;10.846;2023-03-03T03:11:54;18.1;;;39.9;;
74483;SDS011;62942;52.462;10.846;2023-03-03T03:12:54;18.1;;;42;;
74483;SDS011;62942;52.462;10.846;2023-03-03T03:14:05;18;;;42;;
74483;SDS011;62942;52.462;10.846;2023-03-03T03:15:14;17.7;;;39.4;;
74483;SDS011;62942;52.462;10.846;2023-03-03T03:16:14;18.8;;;41.5;;
74483;SDS011;62942;52.462;10.846;2023-03-03T03:17:24;17.7;;;38.5;;
74483;SDS011;62942;52.462;10.846;2023-03-03T03:18:34;18.1;;;40.7;;
74483;SDS011;62942;52.462;10.846;2023-03-03T03:19:34;18.5;;;39.2;;
74483;SDS011;62942;52.462;10.846;2023-03-03T03:20:44;18.5;;;40.6;;
74483;SDS011;62942;52.462;10.846;2023-03-03T03:21:54;18.2;;;39;;
74483;SDS011;62942;52.462;10.846;2023-03-03T03:22:54;17.8;;;38.9;;
74483;SDS011;62942;52.462;10.846;2023-03-03T03:24:04;18.1;;;39.3;;
74483;SDS011;62942;52.462;10.846;2023-03-03T03:25:14;18.4;;;40.8;;
74483;SDS011;62942;52.462;10.846;2023-03-03T03:26:14;17.8;;;38.6;;
74483;SDS011;62942;52.462;10.846;2023-03-03T03:27:24;18.3;;;41.6;;
74483;SDS011;62942;52.462;10.846;2023-03-03T03:28:34;17.5;;;38.8;;
74483;SDS011;62942;52.462;10.846;2023-03-03T03:29:44;18.1;;;41.2;;
74483;SDS011;62942;52.462;10.846;2023-03-03T03:30:44;18;;;38.1;;
74483;SDS011;62942;52.462;10.846;2023-03-03T03:31:54;18.1;;;38.1;;
74483;SDS011;62942;52.462;10.846;2023-03-03T03:33:04;17.7;;;38.8;;
74483;SDS011;62942;52.462;10.846;2023-03-03T03:34:14;17.2;;;38.1;;
74483;SDS011;62942;52.462;10.846;2023-03-03T03:35:24;17.3;;;36.6;;
74483;SDS011;62942;52.462;10.846;2023-03-03T03:36:24;17.7;;;38.9;;
74483;SDS011;62942;52.462;10.846;2023-03-03T03:37:34;18.1;;;40;;
74483;SDS011;62942;52.462;10.846;2023-03-03T03:38:44;18;;;39.5;;
74483;SDS011;62942;52.462;10.846;2023-03-03T03:39:44;17.5;;;37.4;;
74483;SDS011;62942;52.462;10.846;2023-03-03T03:40:54;17.6;;;37.7;;
74483;SDS011;62942;52.462;10.846;2023-03-03T03:42:04;18.3;;;40.2;;
74483;SDS011;62942;52.462;10.846;2023-03-03T03:43:14;18.5;;;38;;
74483;SDS011;62942;52.462;10.846;2023-03-03T03:44:14;18.1;;;36.8;;
74483;SDS011;62942;52.462;10.846;2023-03-03T03:45:24;19;;;40.9;;
74483;SDS011;62942;52.462;10.846;2023-03-03T03:46:34;17.7;;;38.2;;
74483;SDS011;62942;52.462;10.846;2023-03-03T03:47:34;18.4;;;40.4;;
74483;SDS011;62942;52.462;10.846;2023-03-03T03:48:44;18.3;;;39;;
74483;SDS011;62942;52.462;10.846;2023-03-03T03:49:54;18.7;;;40;;
74483;SDS011;62942;52.462;10.846;2023-03-03T03:51:04;19.1;;;40.7;;
74483;SDS011;62942;52.462;10.846;2023-03-03T03:52:14;18.9;;;40.4;;
74483;SDS011;62942;52.462;10.846;2023-03-03T03:53:14;19.5;;;42.4;;
74483;SDS011;62942;52.462;10.846;2023-03-03T03:54:24;18.2;;;38.9;;
74483;SDS011;62942;52.462;10.846;2023-03-03T03:55:34;19.1;;;42.9;;
74483;SDS011;62942;52.462;10.846;2023-03-03T03:56:44;18.7;;;39.7;;
74483;SDS011;62942;52.462;10.846;2023-03-03T03:57:54;18.7;;;40.3;;
74483;SDS011;62942;52.462;10.846;2023-03-03T03:59:04;18.9;;;41.4;;
74483;SDS011;62942;52.462;10.846;2023-03-03T04:00:14;18.9;;;40.9;;
74483;SDS011;62942;52.462;10.846;2023-03-03T04:01:24;19;;;40.4;;
74483;SDS011;62942;52.462;10.846;2023-03-03T04:02:34;18.8;;;39;;
74483;SDS011;62942;52.462;10.846;2023-03-03T04:03:34;19.9;;;42.1;;
74483;SDS011;62942;52.462;10.846;2023-03-03T04:04:44;19.1;;;41.1;;
74483;SDS011;62942;52.462;10.846;2023-03-03T04:05:44;18.8;;;40.2;;
74483;SDS011;62942;52.462;10.846;2023-03-03T04:06:54;18.5;;;41.4;;
74483;SDS011;62942;52.462;10.846;2023-03-03T04:07:54;20;;;42.7;;
74483;SDS011;62942;52.462;10.846;2023-03-03T04:09:04;19.5;;;42.5;;
74483;SDS011;62942;52.462;10.846;2023-03-03T04:10:04;20.4;;;43.7;;
74483;SDS011;62942;52.462;10.846;2023-03-03T04:11:14;20.3;;;42.6;;
74483;SDS011;62942;52.462;10.846;2023-03-03T04:12:24;20.2;;;44.1;;
74483;SDS011;62942;52.462;10.846;2023-03-03T04:13:34;19.8;;;42.1;;
74483;SDS011;62942;52.462;10.846;2023-03-03T04:14:44;19.5;;;41.2;;
74483;SDS011;62942;52.462;10.846;2023-03-03T04:15:44;20;;;42.5;;
74483;SDS011;62942;52.462;10.846;2023-03-03T04:16:54;19.1;;;39.6;;
74483;SDS011;62942;52.462;10.846;2023-03-03T04:18:04;19.1;;;39.1;;
74483;SDS011;62942;52.462;10.846;2023-03-03T04:19:14;18.7;;;38.2;;
74483;SDS011;62942;52.462;10.846;2023-03-03T04:20:24;19.2;;;38.5;;
74483;SDS011;62942;52.462;10.846;2023-03-03T04:21:24;18.8;;;39.2;;
74483;SDS011;62942;52.462;10.846;2023-03-03T04:22:34;19.1;;;39.6;;
74483;SDS011;62942;52.462;10.846;2023-03-03T04:23:34;18.8;;;38.9;;
74483;SDS011;62942;52.462;10.846;2023-03-03T04:24:44;19.7;;;40.2;;
74483;SDS011;62942;52.462;10.846;2023-03-03T04:25:54;19.3;;;39.8;;
74483;SDS011;62942;52.462;10.846;2023-03-03T04:26:54;20.4;;;41.4;;
74483;SDS011;62942;52.462;10.846;2023-03-03T04:28:04;19.2;;;40.5;;
74483;SDS011;62942;52.462;10.846;2023-03-03T04:29:14;19.9;;;40.5;;
74483;SDS011;62942;52.462;10.846;2023-03-03T04:30:24;19.4;;;39.5;;
74483;SDS011;62942;52.462;10.846;2023-03-03T04:31:34;19.4;;;38.7;;
74483;SDS011;62942;52.462;10.846;2023-03-03T04:32:34;19.2;;;37.4;;
74483;SDS011;62942;52.462;10.846;2023-03-03T04:33:44;19.5;;;39;;
74483;SDS011;62942;52.462;10.846;2023-03-03T04:34:54;19.2;;;38;;
74483;SDS011;62942;52.462;10.846;2023-03-03T04:36:04;19.6;;;38.9;;
74483;SDS011;62942;52.462;10.846;2023-03-03T04:37:14;20.1;;;39.7;;
74483;SDS011;62942;52.462;10.846;2023-03-03T04:38:14;19.2;;;37.9;;
74483;SDS011;62942;52.462;10.846;2023-03-03T04:39:24;20;;;39.1;;
74483;SDS011;62942;52.462;10.846;2023-03-03T04:40:24;20.1;;;39.2;;
74483;SDS011;62942;52.462;10.846;2023-03-03T04:41:34;18.6;;;35.7;;
74483;SDS011;62942;52.462;10.846;2023-03-03T04:42:44;19;;;36.8;;
74483;SDS011;62942;52.462;10.846;2023-03-03T04:43:54;19.5;;;37.7;;
74483;SDS011;62942;52.462;10.846;2023-03-03T04:44:54;19.5;;;37.6;;
74483;SDS011;62942;52.462;10.846;2023-03-03T04:46:04;19.1;;;37.2;;
74483;SDS011;62942;52.462;10.846;2023-03-03T04:47:14;19.4;;;37.4;;
74483;SDS011;62942;52.462;10.846;2023-03-03T04:48:24;19.9;;;40;;
74483;SDS011;62942;52.462;10.846;2023-03-03T04:49:24;19.6;;;38.3;;
74483;SDS011;62942;52.462;10.846;2023-03-03T04:50:34;19.2;;;37.3;;
74483;SDS011;62942;52.462;10.846;2023-03-03T04:51:34;20;;;39.1;;
74483;SDS011;62942;52.462;10.846;2023-03-03T04:52:44;19.6;;;39.4;;
74483;SDS011;62942;52.462;10.846;2023-03-03T04:53:54;19.6;;;37.9;;
74483;SDS011;62942;52.462;10.846;2023-03-03T04:55:04;19.6;;;38.2;;
74483;SDS011;62942;52.462;10.846;2023-03-03T04:56:14;19.7;;;38.4;;
74483;SDS011;62942;52.462;10.846;2023-03-03T04:57:14;20.2;;;38.7;;
74483;SDS011;62942;52.462;10.846;2023-03-03T04:58:24;19.6;;;37.1;;
74483;SDS011;62942;52.462;10.846;2023-03-03T04:59:34;19.6;;;38.3;;
74483;SDS011;62942;52.462;10.846;2023-03-03T05:00:34;19.6;;;37.7;;
74483;SDS011;62942;52.462;10.846;2023-03-03T05:01:44;19.6;;;36.2;;
74483;SDS011;62942;52.462;10.846;2023-03-03T05:02:46;18.7;;;35.7;;
74483;SDS011;62942;52.462;10.846;2023-03-03T05:03:54;19.2;;;36.5;;
74483;SDS011;62942;52.462;10.846;2023-03-03T05:05:04;19;;;36;;
74483;SDS011;62942;52.462;10.846;2023-03-03T05:06:14;18.8;;;35.6;;
74483;SDS011;62942;52.462;10.846;2023-03-03T05:07:14;19.1;;;36.4;;
74483;SDS011;62942;52.462;10.846;2023-03-03T05:08:24;18.6;;;34.4;;
74483;SDS011;62942;52.462;10.846;2023-03-03T05:09:34;18.9;;;36.3;;
74483;SDS011;62942;52.462;10.846;2023-03-03T05:10:34;18.4;;;34.5;;
74483;SDS011;62942;52.462;10.846;2023-03-03T05:11:44;18.5;;;34.5;;
74483;SDS011;62942;52.462;10.846;2023-03-03T05:12:54;19;;;35.4;;
74483;SDS011;62942;52.462;10.846;2023-03-03T05:14:04;18.6;;;34.1;;
74483;SDS011;62942;52.462;10.846;2023-03-03T05:15:04;18.6;;;34.2;;
74483;SDS011;62942;52.462;10.846;2023-03-03T05:16:14;18.3;;;34.8;;
74483;SDS011;62942;52.462;10.846;2023-03-03T05:17:24;18.5;;;33.7;;
74483;SDS011;62942;52.462;10.846;2023-03-03T05:18:24;18.3;;;33.5;;
74483;SDS011;62942;52.462;10.846;2023-03-03T05:19:34;18.5;;;33.4;;
74483;SDS011;62942;52.462;10.846;2023-03-03T05:20:44;18.3;;;32.3;;
74483;SDS011;62942;52.462;10.846;2023-03-03T05:21:54;18.1;;;32.9;;
74483;SDS011;62942;52.462;10.846;2023-03-03T05:23:04;17.9;;;31.4;;
74483;SDS011;62942;52.462;10.846;2023-03-03T05:24:04;18.3;;;33.7;;
74483;SDS011;62942;52.462;10.846;2023-03-03T05:25:14;18.1;;;33.7;;
74483;SDS011;62942;52.462;10.846;2023-03-03T05:26:24;18.3;;;34.1;;
74483;SDS011;62942;52.462;10.846;2023-03-03T05:27:34;18.4;;;35.5;;
74483;SDS011;62942;52.462;10.846;2023-03-03T05:28:44;18.5;;;34.5;;
74483;SDS011;62942;52.462;10.846;2023-03-03T05:29:54;18.7;;;35.8;;
74483;SDS011;62942;52.462;10.846;2023-03-03T05:30:54;18.9;;;36;;
74483;SDS011;62942;52.462;10.846;2023-03-03T05:31:54;18.7;;;35.1;;
74483;SDS011;62942;52.462;10.846;2023-03-03T05:33:04;18.8;;;34.5;;
74483;SDS011;62942;52.462;10.846;2023-03-03T05:34:04;19;;;36.9;;
74483;SDS011;62942;52.462;10.846;2023-03-03T05:35:04;18.7;;;34.1;;
74483;SDS011;62942;52.462;10.846;2023-03-03T05:36:14;18.7;;;35.3;;
74483;SDS011;62942;52.462;10.846;2023-03-03T05:37:24;18.7;;;36.9;;
74483;SDS011;62942;52.462;10.846;2023-03-03T05:38:34;18.8;;;34.7;;
74483;SDS011;62942;52.462;10.846;2023-03-03T05:39:44;19.3;;;36;;
74483;SDS011;62942;52.462;10.846;2023-03-03T05:40:54;19.3;;;35.7;;
74483;SDS011;62942;52.462;10.846;2023-03-03T05:42:04;18.8;;;35.8;;
74483;SDS011;62942;52.462;10.846;2023-03-03T05:43:14;19.2;;;36.5;;
74483;SDS011;62942;52.462;10.846;2023-03-03T05:44:24;19.2;;;36.2;;
74483;SDS011;62942;52.462;10.846;2023-03-03T05:45:34;19.2;;;38;;
74483;SDS011;62942;52.462;10.846;2023-03-03T05:46:34;19.5;;;38.3;;
74483;SDS011;62942;52.462;10.846;2023-03-03T05:47:34;19.1;;;35.7;;
74483;SDS011;62942;52.462;10.846;2023-03-03T05:48:34;19.3;;;37.1;;
74483;SDS011;62942;52.462;10.846;2023-03-03T05:49:44;19.5;;;35.8;;
74483;SDS011;62942;52.462;10.846;2023-03-03T05:50:44;19.9;;;37.7;;
74483;SDS011;62942;52.462;10.846;2023-03-03T05:51:54;19.7;;;39.5;;
74483;SDS011;62942;52.462;10.846;2023-03-03T05:53:04;19.4;;;37.4;;
74483;SDS011;62942;52.462;10.846;2023-03-03T05:54:14;19.3;;;37.1;;
74483;SDS011;62942;52.462;10.846;2023-03-03T05:55:24;20.7;;;40.6;;
74483;SDS011;62942;52.462;10.846;2023-03-03T05:56:24;19.4;;;38.1;;
74483;SDS011;62942;52.462;10.846;2023-03-03T05:57:34;20.3;;;37.4;;
74483;SDS011;62942;52.462;10.846;2023-03-03T05:58:44;19.6;;;36.9;;
74483;SDS011;62942;52.462;10.846;2023-03-03T05:59:54;19.6;;;37.4;;
74483;SDS011;62942;52.462;10.846;2023-03-03T06:01:04;20;;;37.5;;
74483;SDS011;62942;52.462;10.846;2023-03-03T06:02:04;20;;;38.8;;
74483;SDS011;62942;52.462;10.846;2023-03-03T06:03:14;20.6;;;40.7;;
74483;SDS011;62942;52.462;10.846;2023-03-03T06:04:24;20.1;;;38.6;;
74483;SDS011;62942;52.462;10.846;2023-03-03T06:05:24;20.5;;;39.9;;
74483;SDS011;62942;52.462;10.846;2023-03-03T06:06:34;19.6;;;37;;
74483;SDS011;62942;52.462;10.846;2023-03-03T06:07:34;20.4;;;39.1;;
74483;SDS011;62942;52.462;10.846;2023-03-03T06:08:44;20.3;;;39.2;;
74483;SDS011;62942;52.462;10.846;2023-03-03T06:09:54;20.4;;;40.9;;
74483;SDS011;62942;52.462;10.846;2023-03-03T06:10:54;20.3;;;39.5;;
74483;SDS011;62942;52.462;10.846;2023-03-03T06:12:04;20.3;;;39;;
74483;SDS011;62942;52.462;10.846;2023-03-03T06:13:14;20.2;;;38.2;;
74483;SDS011;62942;52.462;10.846;2023-03-03T06:14:24;20;;;38.7;;
74483;SDS011;62942;52.462;10.846;2023-03-03T06:15:24;20.1;;;39.4;;
74483;SDS011;62942;52.462;10.846;2023-03-03T06:16:34;19.9;;;39.2;;
74483;SDS011;62942;52.462;10.846;2023-03-03T06:17:44;20.7;;;39.7;;
74483;SDS011;62942;52.462;10.846;2023-03-03T06:18:44;21;;;38.7;;
74483;SDS011;62942;52.462;10.846;2023-03-03T06:19:54;19.8;;;38.4;;
74483;SDS011;62942;52.462;10.846;2023-03-03T06:20:54;20.4;;;40.1;;
74483;SDS011;62942;52.462;10.846;2023-03-03T06:22:04;20.3;;;38.4;;
74483;SDS011;62942;52.462;10.846;2023-03-03T06:23:14;19.9;;;38.4;;
74483;SDS011;62942;52.462;10.846;2023-03-03T06:24:24;20.3;;;38.7;;
74483;SDS011;62942;52.462;10.846;2023-03-03T06:25:34;19.7;;;38.4;;
74483;SDS011;62942;52.462;10.846;2023-03-03T06:26:44;20.3;;;38.9;;
74483;SDS011;62942;52.462;10.846;2023-03-03T06:27:54;20.4;;;40.4;;
74483;SDS011;62942;52.462;10.846;2023-03-03T06:29:04;20.3;;;41.2;;
74483;SDS011;62942;52.462;10.846;2023-03-03T06:30:14;19.7;;;37.9;;
74483;SDS011;62942;52.462;10.846;2023-03-03T06:31:24;19.8;;;38.2;;
74483;SDS011;62942;52.462;10.846;2023-03-03T06:32:24;19.2;;;36.8;;
74483;SDS011;62942;52.462;10.846;2023-03-03T06:33:34;19.7;;;37.5;;
74483;SDS011;62942;52.462;10.846;2023-03-03T06:34:44;20.1;;;38.8;;
74483;SDS011;62942;52.462;10.846;2023-03-03T06:35:47;19.9;;;39.6;;
74483;SDS011;62942;52.462;10.846;2023-03-03T06:36:54;20.2;;;39.4;;
74483;SDS011;62942;52.462;10.846;2023-03-03T06:37:54;20.3;;;39.2;;
74483;SDS011;62942;52.462;10.846;2023-03-03T06:39:04;20.1;;;38.6;;